TKQ weather

Kigoma Airport
Kigoma, Xigoma Region, Tanzania

Public forecast

Using degrees Celsius for public forecast. Weather courtesy of forecast.io.

METAR (pilot weather report)

Report is more than 2 hours old.

Retrieved 2019/05/22 10:00 UTC (5 hours ago):

HTKA 221000Z 09010KT 9999 FEW025 FEW026CB 30/18 Q1018

TAF (pilot weather forecast)

Forecast is more than 12 hours old.

Retrieved 2019/04/07 12:27 UTC (2 months ago):

TAF HTKA 071120Z 0712/0812 12013KT 9999 FEW026 FEW027CB BECMG 0714/0716 00000KT